Frances, Kentucky
Current Conditions -  °F | °C
As of 2:35 AM on Friday 31 Oct 2014 (Local Time) from K5M9 Reporting Station
Light Rain Light Rain  
Wind Chill: 48°   Ceiling: 6000
Heat Index: 48°   Visibility: 10mi
Dew Point: 45°   Wind: 3mph
Humidity: 89%   Direction: 360°N
Pressure: 30.01"   Gusts: NA
Location:  37.3359°N, 88.1049°W
Report Text: K5M9 310735Z AUTO 36003KT 10SM -RA SCT050 OVC060 09/07 A3001 RMK AO2 T00900072
Loading
Personal Weather Stations






























Interactive Weather Map
Tropical Storm Tracking
New forecast layout! Learn more

10-Day Weather Forecast

Advertisements
Track Severe Weather on mobile